sensor_id;sensor_type;location;lat;lon;timestamp;P1;durP1;ratioP1;P2;durP2;ratioP2
72557;SDS011;60583;50.094;8.748;2023-12-20T00:01:15;7.90;;;3.92;;
72557;SDS011;60583;50.094;8.748;2023-12-20T00:03:41;7.63;;;3.60;;
72557;SDS011;60583;50.094;8.748;2023-12-20T00:06:06;8.07;;;4.07;;
72557;SDS011;60583;50.094;8.748;2023-12-20T00:08:31;7.13;;;3.78;;
72557;SDS011;60583;50.094;8.748;2023-12-20T00:10:57;9.13;;;4.43;;
72557;SDS011;60583;50.094;8.748;2023-12-20T00:13:22;9.20;;;4.03;;
72557;SDS011;60583;50.094;8.748;2023-12-20T00:15:48;8.82;;;3.90;;
72557;SDS011;60583;50.094;8.748;2023-12-20T00:18:13;7.13;;;3.63;;
72557;SDS011;60583;50.094;8.748;2023-12-20T00:20:38;8.93;;;4.10;;
72557;SDS011;60583;50.094;8.748;2023-12-20T00:23:04;8.65;;;3.97;;
72557;SDS011;60583;50.094;8.748;2023-12-20T00:25:30;8.35;;;3.95;;
72557;SDS011;60583;50.094;8.748;2023-12-20T00:27:55;8.02;;;4.47;;
72557;SDS011;60583;50.094;8.748;2023-12-20T00:30:20;7.13;;;3.83;;
72557;SDS011;60583;50.094;8.748;2023-12-20T00:32:46;7.57;;;3.80;;
72557;SDS011;60583;50.094;8.748;2023-12-20T00:35:15;6.93;;;3.30;;
72557;SDS011;60583;50.094;8.748;2023-12-20T00:37:42;7.13;;;3.78;;
72557;SDS011;60583;50.094;8.748;2023-12-20T00:40:08;8.23;;;3.95;;
72557;SDS011;60583;50.094;8.748;2023-12-20T00:42:34;6.78;;;3.72;;
72557;SDS011;60583;50.094;8.748;2023-12-20T00:44:59;8.10;;;3.83;;
72557;SDS011;60583;50.094;8.748;2023-12-20T00:47:25;7.55;;;3.47;;
72557;SDS011;60583;50.094;8.748;2023-12-20T00:49:51;7.65;;;3.92;;
72557;SDS011;60583;50.094;8.748;2023-12-20T00:52:16;7.15;;;3.60;;
72557;SDS011;60583;50.094;8.748;2023-12-20T00:54:42;8.15;;;3.60;;
72557;SDS011;60583;50.094;8.748;2023-12-20T00:57:08;8.20;;;3.88;;
72557;SDS011;60583;50.094;8.748;2023-12-20T00:59:34;8.55;;;3.72;;
72557;SDS011;60583;50.094;8.748;2023-12-20T01:01:59;7.28;;;3.80;;
72557;SDS011;60583;50.094;8.748;2023-12-20T01:04:24;6.07;;;3.28;;
72557;SDS011;60583;50.094;8.748;2023-12-20T01:06:50;7.13;;;3.58;;
72557;SDS011;60583;50.094;8.748;2023-12-20T01:09:15;6.43;;;3.45;;
72557;SDS011;60583;50.094;8.748;2023-12-20T01:11:40;7.65;;;3.65;;
72557;SDS011;60583;50.094;8.748;2023-12-20T01:14:06;6.30;;;2.85;;
72557;SDS011;60583;50.094;8.748;2023-12-20T01:16:31;7.80;;;3.28;;
72557;SDS011;60583;50.094;8.748;2023-12-20T01:18:57;6.07;;;3.17;;
72557;SDS011;60583;50.094;8.748;2023-12-20T01:21:22;6.75;;;3.20;;
72557;SDS011;60583;50.094;8.748;2023-12-20T01:23:47;7.05;;;3.50;;
72557;SDS011;60583;50.094;8.748;2023-12-20T01:26:14;6.88;;;3.42;;
72557;SDS011;60583;50.094;8.748;2023-12-20T01:28:40;5.82;;;3.35;;
72557;SDS011;60583;50.094;8.748;2023-12-20T01:31:05;6.75;;;3.63;;
72557;SDS011;60583;50.094;8.748;2023-12-20T01:33:31;6.82;;;3.20;;
72557;SDS011;60583;50.094;8.748;2023-12-20T01:35:56;6.82;;;3.28;;
72557;SDS011;60583;50.094;8.748;2023-12-20T01:38:21;5.93;;;3.28;;
72557;SDS011;60583;50.094;8.748;2023-12-20T01:40:47;6.50;;;3.53;;
72557;SDS011;60583;50.094;8.748;2023-12-20T01:43:13;6.22;;;2.67;;
72557;SDS011;60583;50.094;8.748;2023-12-20T01:45:38;6.38;;;3.10;;
72557;SDS011;60583;50.094;8.748;2023-12-20T01:48:04;6.38;;;3.05;;
72557;SDS011;60583;50.094;8.748;2023-12-20T01:50:31;6.90;;;3.00;;
72557;SDS011;60583;50.094;8.748;2023-12-20T01:52:57;6.72;;;3.28;;
72557;SDS011;60583;50.094;8.748;2023-12-20T01:55:26;5.40;;;2.97;;
72557;SDS011;60583;50.094;8.748;2023-12-20T01:57:54;6.05;;;2.95;;
72557;SDS011;60583;50.094;8.748;2023-12-20T02:00:20;6.70;;;3.38;;
72557;SDS011;60583;50.094;8.748;2023-12-20T02:02:49;6.53;;;3.00;;
72557;SDS011;60583;50.094;8.748;2023-12-20T02:05:15;5.03;;;2.60;;
72557;SDS011;60583;50.094;8.748;2023-12-20T02:07:41;4.97;;;2.75;;
72557;SDS011;60583;50.094;8.748;2023-12-20T02:10:07;6.18;;;2.92;;
72557;SDS011;60583;50.094;8.748;2023-12-20T02:12:33;5.28;;;2.53;;
72557;SDS011;60583;50.094;8.748;2023-12-20T02:14:58;5.47;;;2.75;;
72557;SDS011;60583;50.094;8.748;2023-12-20T02:17:24;6.57;;;2.70;;
72557;SDS011;60583;50.094;8.748;2023-12-20T02:19:50;4.70;;;2.50;;
72557;SDS011;60583;50.094;8.748;2023-12-20T02:22:15;5.70;;;2.90;;
72557;SDS011;60583;50.094;8.748;2023-12-20T02:24:41;5.18;;;2.65;;
72557;SDS011;60583;50.094;8.748;2023-12-20T02:27:07;5.88;;;2.70;;
72557;SDS011;60583;50.094;8.748;2023-12-20T02:29:33;6.93;;;2.72;;
72557;SDS011;60583;50.094;8.748;2023-12-20T02:31:59;6.43;;;2.85;;
72557;SDS011;60583;50.094;8.748;2023-12-20T02:34:25;5.95;;;2.67;;
72557;SDS011;60583;50.094;8.748;2023-12-20T02:36:50;6.38;;;3.05;;
72557;SDS011;60583;50.094;8.748;2023-12-20T02:39:16;5.20;;;2.63;;
72557;SDS011;60583;50.094;8.748;2023-12-20T02:41:41;5.07;;;2.50;;
72557;SDS011;60583;50.094;8.748;2023-12-20T02:44:07;5.03;;;2.70;;
72557;SDS011;60583;50.094;8.748;2023-12-20T02:46:32;5.13;;;2.30;;
72557;SDS011;60583;50.094;8.748;2023-12-20T02:48:58;5.50;;;2.42;;
72557;SDS011;60583;50.094;8.748;2023-12-20T02:51:23;5.70;;;2.50;;
72557;SDS011;60583;50.094;8.748;2023-12-20T02:53:48;5.03;;;2.45;;
72557;SDS011;60583;50.094;8.748;2023-12-20T02:56:14;5.13;;;2.28;;
72557;SDS011;60583;50.094;8.748;2023-12-20T02:58:39;5.55;;;2.53;;
72557;SDS011;60583;50.094;8.748;2023-12-20T03:01:05;6.50;;;2.95;;
72557;SDS011;60583;50.094;8.748;2023-12-20T03:03:31;5.68;;;2.45;;
72557;SDS011;60583;50.094;8.748;2023-12-20T03:05:57;5.85;;;2.92;;
72557;SDS011;60583;50.094;8.748;2023-12-20T03:08:22;5.57;;;2.45;;
72557;SDS011;60583;50.094;8.748;2023-12-20T03:10:48;5.97;;;2.90;;
72557;SDS011;60583;50.094;8.748;2023-12-20T03:13:13;5.20;;;2.50;;
72557;SDS011;60583;50.094;8.748;2023-12-20T03:15:39;5.50;;;2.60;;
72557;SDS011;60583;50.094;8.748;2023-12-20T03:18:04;5.20;;;2.33;;
72557;SDS011;60583;50.094;8.748;2023-12-20T03:20:30;5.75;;;2.63;;
72557;SDS011;60583;50.094;8.748;2023-12-20T03:22:59;5.10;;;2.67;;
72557;SDS011;60583;50.094;8.748;2023-12-20T03:25:27;6.03;;;2.42;;
72557;SDS011;60583;50.094;8.748;2023-12-20T03:27:53;5.18;;;2.60;;
72557;SDS011;60583;50.094;8.748;2023-12-20T03:30:19;4.85;;;2.30;;
72557;SDS011;60583;50.094;8.748;2023-12-20T03:32:44;4.68;;;2.20;;
72557;SDS011;60583;50.094;8.748;2023-12-20T03:35:10;4.95;;;2.28;;
72557;SDS011;60583;50.094;8.748;2023-12-20T03:37:35;4.97;;;2.30;;
72557;SDS011;60583;50.094;8.748;2023-12-20T03:40:01;5.15;;;2.30;;
72557;SDS011;60583;50.094;8.748;2023-12-20T03:42:27;5.38;;;2.25;;
72557;SDS011;60583;50.094;8.748;2023-12-20T03:44:52;5.32;;;2.10;;
72557;SDS011;60583;50.094;8.748;2023-12-20T03:47:18;4.63;;;2.28;;
72557;SDS011;60583;50.094;8.748;2023-12-20T03:49:43;4.55;;;2.03;;
72557;SDS011;60583;50.094;8.748;2023-12-20T03:52:08;4.93;;;2.47;;
72557;SDS011;60583;50.094;8.748;2023-12-20T03:54:35;5.22;;;2.40;;
72557;SDS011;60583;50.094;8.748;2023-12-20T03:57:00;4.30;;;1.92;;
72557;SDS011;60583;50.094;8.748;2023-12-20T03:59:26;4.60;;;2.40;;
72557;SDS011;60583;50.094;8.748;2023-12-20T04:01:52;5.47;;;2.08;;
72557;SDS011;60583;50.094;8.748;2023-12-20T04:04:17;7.47;;;3.85;;
72557;SDS011;60583;50.094;8.748;2023-12-20T04:06:43;5.18;;;2.55;;
72557;SDS011;60583;50.094;8.748;2023-12-20T04:09:08;4.60;;;2.15;;
72557;SDS011;60583;50.094;8.748;2023-12-20T04:11:37;5.20;;;2.60;;
72557;SDS011;60583;50.094;8.748;2023-12-20T04:14:02;5.13;;;2.20;;
72557;SDS011;60583;50.094;8.748;2023-12-20T04:16:27;4.90;;;2.47;;
72557;SDS011;60583;50.094;8.748;2023-12-20T04:18:53;5.60;;;2.47;;
72557;SDS011;60583;50.094;8.748;2023-12-20T04:21:18;4.82;;;2.28;;
72557;SDS011;60583;50.094;8.748;2023-12-20T04:23:43;5.78;;;2.35;;
72557;SDS011;60583;50.094;8.748;2023-12-20T04:26:09;4.47;;;2.05;;
72557;SDS011;60583;50.094;8.748;2023-12-20T04:28:35;5.10;;;2.40;;
72557;SDS011;60583;50.094;8.748;2023-12-20T04:31:00;5.70;;;2.72;;
72557;SDS011;60583;50.094;8.748;2023-12-20T04:33:26;7.10;;;3.90;;
72557;SDS011;60583;50.094;8.748;2023-12-20T04:35:51;5.43;;;2.70;;
72557;SDS011;60583;50.094;8.748;2023-12-20T04:38:16;4.60;;;2.60;;
72557;SDS011;60583;50.094;8.748;2023-12-20T04:40:42;6.28;;;3.13;;
72557;SDS011;60583;50.094;8.748;2023-12-20T04:43:07;5.60;;;2.60;;
72557;SDS011;60583;50.094;8.748;2023-12-20T04:45:34;5.15;;;2.20;;
72557;SDS011;60583;50.094;8.748;2023-12-20T04:47:59;4.85;;;2.40;;
72557;SDS011;60583;50.094;8.748;2023-12-20T04:50:26;5.18;;;2.42;;
72557;SDS011;60583;50.094;8.748;2023-12-20T04:52:51;5.95;;;2.47;;
72557;SDS011;60583;50.094;8.748;2023-12-20T04:55:17;5.95;;;2.53;;
72557;SDS011;60583;50.094;8.748;2023-12-20T04:57:42;5.10;;;2.40;;
72557;SDS011;60583;50.094;8.748;2023-12-20T05:00:08;5.40;;;2.58;;
72557;SDS011;60583;50.094;8.748;2023-12-20T05:02:34;5.07;;;2.30;;
72557;SDS011;60583;50.094;8.748;2023-12-20T05:05:00;5.43;;;2.45;;
72557;SDS011;60583;50.094;8.748;2023-12-20T05:07:26;4.47;;;2.45;;
72557;SDS011;60583;50.094;8.748;2023-12-20T05:09:51;5.60;;;2.58;;
72557;SDS011;60583;50.094;8.748;2023-12-20T05:12:16;5.38;;;2.30;;
72557;SDS011;60583;50.094;8.748;2023-12-20T05:14:42;6.05;;;2.83;;
72557;SDS011;60583;50.094;8.748;2023-12-20T05:17:07;5.55;;;2.78;;
72557;SDS011;60583;50.094;8.748;2023-12-20T05:19:32;7.20;;;2.75;;
72557;SDS011;60583;50.094;8.748;2023-12-20T05:22:00;6.40;;;3.00;;
72557;SDS011;60583;50.094;8.748;2023-12-20T05:24:26;6.25;;;2.83;;
72557;SDS011;60583;50.094;8.748;2023-12-20T05:26:52;5.97;;;2.65;;
72557;SDS011;60583;50.094;8.748;2023-12-20T05:29:17;6.45;;;2.50;;
72557;SDS011;60583;50.094;8.748;2023-12-20T05:31:43;6.18;;;2.67;;
72557;SDS011;60583;50.094;8.748;2023-12-20T05:34:08;6.70;;;2.47;;
72557;SDS011;60583;50.094;8.748;2023-12-20T05:36:33;5.80;;;2.70;;
72557;SDS011;60583;50.094;8.748;2023-12-20T05:38:59;5.45;;;2.38;;
72557;SDS011;60583;50.094;8.748;2023-12-20T05:41:24;5.60;;;2.70;;
72557;SDS011;60583;50.094;8.748;2023-12-20T05:43:49;5.03;;;2.50;;
72557;SDS011;60583;50.094;8.748;2023-12-20T05:46:15;4.82;;;2.42;;
72557;SDS011;60583;50.094;8.748;2023-12-20T05:48:41;5.65;;;2.50;;
72557;SDS011;60583;50.094;8.748;2023-12-20T05:51:06;6.20;;;3.10;;
72557;SDS011;60583;50.094;8.748;2023-12-20T05:53:31;7.32;;;3.28;;
72557;SDS011;60583;50.094;8.748;2023-12-20T05:55:57;5.25;;;2.63;;
72557;SDS011;60583;50.094;8.748;2023-12-20T05:58:22;6.53;;;3.22;;
72557;SDS011;60583;50.094;8.748;2023-12-20T06:00:47;7.13;;;3.17;;
72557;SDS011;60583;50.094;8.748;2023-12-20T06:03:14;7.22;;;3.20;;
72557;SDS011;60583;50.094;8.748;2023-12-20T06:05:39;6.13;;;3.13;;
72557;SDS011;60583;50.094;8.748;2023-12-20T06:08:04;5.93;;;3.15;;
72557;SDS011;60583;50.094;8.748;2023-12-20T06:10:31;6.35;;;2.40;;
72557;SDS011;60583;50.094;8.748;2023-12-20T06:12:56;6.22;;;2.58;;
72557;SDS011;60583;50.094;8.748;2023-12-20T06:15:23;6.93;;;3.10;;
72557;SDS011;60583;50.094;8.748;2023-12-20T06:17:49;7.55;;;3.53;;
72557;SDS011;60583;50.094;8.748;2023-12-20T06:20:14;5.85;;;3.05;;
72557;SDS011;60583;50.094;8.748;2023-12-20T06:22:40;8.95;;;3.28;;
72557;SDS011;60583;50.094;8.748;2023-12-20T06:25:05;7.20;;;3.05;;
72557;SDS011;60583;50.094;8.748;2023-12-20T06:27:32;8.05;;;3.22;;
72557;SDS011;60583;50.094;8.748;2023-12-20T06:29:57;6.05;;;2.53;;
72557;SDS011;60583;50.094;8.748;2023-12-20T06:32:23;6.32;;;2.15;;
72557;SDS011;60583;50.094;8.748;2023-12-20T06:34:49;5.18;;;1.92;;
72557;SDS011;60583;50.094;8.748;2023-12-20T06:37:14;7.30;;;1.80;;
72557;SDS011;60583;50.094;8.748;2023-12-20T06:39:40;4.20;;;1.40;;
72557;SDS011;60583;50.094;8.748;2023-12-20T06:42:06;4.88;;;1.38;;
72557;SDS011;60583;50.094;8.748;2023-12-20T06:44:31;3.80;;;1.13;;
72557;SDS011;60583;50.094;8.748;2023-12-20T06:46:56;4.47;;;1.67;;
72557;SDS011;60583;50.094;8.748;2023-12-20T06:49:22;4.65;;;1.20;;
72557;SDS011;60583;50.094;8.748;2023-12-20T06:51:48;6.80;;;1.50;;
72557;SDS011;60583;50.094;8.748;2023-12-20T06:54:13;4.68;;;1.40;;
72557;SDS011;60583;50.094;8.748;2023-12-20T06:56:40;5.75;;;1.70;;
72557;SDS011;60583;50.094;8.748;2023-12-20T06:59:06;5.15;;;1.70;;
72557;SDS011;60583;50.094;8.748;2023-12-20T07:01:31;4.82;;;1.70;;
72557;SDS011;60583;50.094;8.748;2023-12-20T07:03:57;6.32;;;1.83;;
72557;SDS011;60583;50.094;8.748;2023-12-20T07:06:22;4.93;;;1.70;;
72557;SDS011;60583;50.094;8.748;2023-12-20T07:08:48;5.35;;;2.20;;
72557;SDS011;60583;50.094;8.748;2023-12-20T07:11:13;4.72;;;1.90;;
72557;SDS011;60583;50.094;8.748;2023-12-20T07:13:38;6.50;;;2.28;;
72557;SDS011;60583;50.094;8.748;2023-12-20T07:16:04;5.78;;;2.10;;
72557;SDS011;60583;50.094;8.748;2023-12-20T07:18:29;5.20;;;2.00;;
72557;SDS011;60583;50.094;8.748;2023-12-20T07:20:55;4.55;;;1.63;;
72557;SDS011;60583;50.094;8.748;2023-12-20T07:23:20;5.30;;;2.35;;
72557;SDS011;60583;50.094;8.748;2023-12-20T07:25:46;4.97;;;1.73;;
72557;SDS011;60583;50.094;8.748;2023-12-20T07:28:12;4.82;;;2.40;;
72557;SDS011;60583;50.094;8.748;2023-12-20T07:30:37;4.70;;;2.08;;
72557;SDS011;60583;50.094;8.748;2023-12-20T07:33:02;4.18;;;1.60;;
72557;SDS011;60583;50.094;8.748;2023-12-20T07:35:28;4.30;;;1.60;;
72557;SDS011;60583;50.094;8.748;2023-12-20T07:37:53;5.22;;;1.73;;
72557;SDS011;60583;50.094;8.748;2023-12-20T07:40:19;5.25;;;2.10;;
72557;SDS011;60583;50.094;8.748;2023-12-20T07:42:44;6.05;;;1.90;;
72557;SDS011;60583;50.094;8.748;2023-12-20T07:45:09;8.20;;;1.90;;
72557;SDS011;60583;50.094;8.748;2023-12-20T07:47:37;4.28;;;1.52;;
72557;SDS011;60583;50.094;8.748;2023-12-20T07:50:03;6.03;;;1.90;;
72557;SDS011;60583;50.094;8.748;2023-12-20T07:52:29;4.88;;;1.80;;
72557;SDS011;60583;50.094;8.748;2023-12-20T07:54:55;4.03;;;1.80;;
72557;SDS011;60583;50.094;8.748;2023-12-20T07:57:20;5.20;;;1.80;;
72557;SDS011;60583;50.094;8.748;2023-12-20T07:59:46;5.32;;;1.42;;
72557;SDS011;60583;50.094;8.748;2023-12-20T08:02:11;6.47;;;1.80;;
72557;SDS011;60583;50.094;8.748;2023-12-20T08:04:37;6.40;;;1.80;;
72557;SDS011;60583;50.094;8.748;2023-12-20T08:07:03;3.67;;;1.65;;
72557;SDS011;60583;50.094;8.748;2023-12-20T08:09:28;5.57;;;2.10;;
72557;SDS011;60583;50.094;8.748;2023-12-20T08:11:54;8.55;;;2.13;;
72557;SDS011;60583;50.094;8.748;2023-12-20T08:14:19;6.32;;;1.95;;
72557;SDS011;60583;50.094;8.748;2023-12-20T08:16:44;4.47;;;1.50;;
72557;SDS011;60583;50.094;8.748;2023-12-20T08:19:10;4.20;;;1.55;;
72557;SDS011;60583;50.094;8.748;2023-12-20T08:21:35;6.50;;;2.00;;
72557;SDS011;60583;50.094;8.748;2023-12-20T08:24:01;4.78;;;1.73;;
72557;SDS011;60583;50.094;8.748;2023-12-20T08:26:26;5.18;;;1.65;;
72557;SDS011;60583;50.094;8.748;2023-12-20T08:28:52;4.00;;;1.42;;
72557;SDS011;60583;50.094;8.748;2023-12-20T08:31:17;4.15;;;1.50;;
72557;SDS011;60583;50.094;8.748;2023-12-20T08:33:44;3.88;;;1.25;;
72557;SDS011;60583;50.094;8.748;2023-12-20T08:36:10;5.03;;;1.40;;
72557;SDS011;60583;50.094;8.748;2023-12-20T08:38:36;4.50;;;1.40;;
72557;SDS011;60583;50.094;8.748;2023-12-20T08:41:02;4.05;;;1.33;;
72557;SDS011;60583;50.094;8.748;2023-12-20T08:43:30;4.70;;;1.30;;
72557;SDS011;60583;50.094;8.748;2023-12-20T08:46:01;7.25;;;2.00;;
72557;SDS011;60583;50.094;8.748;2023-12-20T08:48:27;5.65;;;1.48;;
72557;SDS011;60583;50.094;8.748;2023-12-20T08:50:54;7.38;;;1.50;;
72557;SDS011;60583;50.094;8.748;2023-12-20T08:53:19;4.13;;;1.40;;
72557;SDS011;60583;50.094;8.748;2023-12-20T08:55:45;3.90;;;1.40;;
72557;SDS011;60583;50.094;8.748;2023-12-20T08:58:10;5.13;;;1.20;;
72557;SDS011;60583;50.094;8.748;2023-12-20T09:00:36;5.18;;;1.50;;
72557;SDS011;60583;50.094;8.748;2023-12-20T09:03:02;5.10;;;1.40;;
72557;SDS011;60583;50.094;8.748;2023-12-20T09:05:27;6.03;;;1.33;;
72557;SDS011;60583;50.094;8.748;2023-12-20T09:07:53;4.88;;;1.42;;
72557;SDS011;60583;50.094;8.748;2023-12-20T09:10:19;6.45;;;1.45;;
72557;SDS011;60583;50.094;8.748;2023-12-20T09:12:47;4.47;;;1.17;;
72557;SDS011;60583;50.094;8.748;2023-12-20T09:15:14;5.72;;;1.63;;
72557;SDS011;60583;50.094;8.748;2023-12-20T09:17:40;7.70;;;1.75;;
72557;SDS011;60583;50.094;8.748;2023-12-20T09:20:06;4.53;;;1.65;;
72557;SDS011;60583;50.094;8.748;2023-12-20T09:22:33;5.05;;;1.63;;
72557;SDS011;60583;50.094;8.748;2023-12-20T09:24:59;5.32;;;1.90;;
72557;SDS011;60583;50.094;8.748;2023-12-20T09:27:26;6.50;;;2.20;;
72557;SDS011;60583;50.094;8.748;2023-12-20T09:29:52;6.82;;;1.92;;
72557;SDS011;60583;50.094;8.748;2023-12-20T09:32:18;4.53;;;1.70;;
72557;SDS011;60583;50.094;8.748;2023-12-20T09:34:45;4.72;;;1.50;;
72557;SDS011;60583;50.094;8.748;2023-12-20T09:37:11;7.88;;;2.08;;
72557;SDS011;60583;50.094;8.748;2023-12-20T09:39:36;5.47;;;1.90;;
72557;SDS011;60583;50.094;8.748;2023-12-20T09:42:05;4.68;;;1.20;;
72557;SDS011;60583;50.094;8.748;2023-12-20T09:44:31;6.53;;;1.48;;
72557;SDS011;60583;50.094;8.748;2023-12-20T09:46:59;3.50;;;1.10;;
72557;SDS011;60583;50.094;8.748;2023-12-20T09:49:27;4.78;;;1.38;;
72557;SDS011;60583;50.094;8.748;2023-12-20T09:51:54;6.50;;;1.50;;
72557;SDS011;60583;50.094;8.748;2023-12-20T09:54:21;6.55;;;1.95;;
72557;SDS011;60583;50.094;8.748;2023-12-20T09:56:48;5.60;;;1.35;;
72557;SDS011;60583;50.094;8.748;2023-12-20T09:59:13;5.93;;;1.73;;
72557;SDS011;60583;50.094;8.748;2023-12-20T10:01:40;7.53;;;1.65;;
72557;SDS011;60583;50.094;8.748;2023-12-20T10:04:07;5.70;;;1.70;;
72557;SDS011;60583;50.094;8.748;2023-12-20T10:06:37;4.97;;;1.40;;
72557;SDS011;60583;50.094;8.748;2023-12-20T10:09:05;4.78;;;1.60;;
72557;SDS011;60583;50.094;8.748;2023-12-20T10:11:31;7.05;;;1.60;;
72557;SDS011;60583;50.094;8.748;2023-12-20T10:14:00;5.30;;;1.17;;
72557;SDS011;60583;50.094;8.748;2023-12-20T10:16:26;4.40;;;1.73;;
72557;SDS011;60583;50.094;8.748;2023-12-20T10:18:53;5.07;;;1.55;;
72557;SDS011;60583;50.094;8.748;2023-12-20T10:21:19;7.30;;;1.50;;
72557;SDS011;60583;50.094;8.748;2023-12-20T10:23:45;6.45;;;1.50;;
72557;SDS011;60583;50.094;8.748;2023-12-20T10:26:17;5.95;;;2.10;;
72557;SDS011;60583;50.094;8.748;2023-12-20T10:28:44;7.05;;;1.90;;
72557;SDS011;60583;50.094;8.748;2023-12-20T10:31:09;5.05;;;1.40;;
72557;SDS011;60583;50.094;8.748;2023-12-20T10:33:35;4.50;;;1.50;;
72557;SDS011;60583;50.094;8.748;2023-12-20T10:36:00;4.45;;;1.45;;
72557;SDS011;60583;50.094;8.748;2023-12-20T10:38:26;4.50;;;1.40;;
72557;SDS011;60583;50.094;8.748;2023-12-20T10:40:54;4.53;;;1.45;;
72557;SDS011;60583;50.094;8.748;2023-12-20T10:43:22;7.53;;;1.77;;
72557;SDS011;60583;50.094;8.748;2023-12-20T10:45:51;4.45;;;1.70;;
72557;SDS011;60583;50.094;8.748;2023-12-20T10:48:17;6.35;;;1.60;;
72557;SDS011;60583;50.094;8.748;2023-12-20T10:50:43;7.38;;;1.67;;
72557;SDS011;60583;50.094;8.748;2023-12-20T10:53:10;6.10;;;1.88;;
72557;SDS011;60583;50.094;8.748;2023-12-20T10:55:37;5.20;;;1.48;;
72557;SDS011;60583;50.094;8.748;2023-12-20T10:58:08;5.63;;;1.70;;
72557;SDS011;60583;50.094;8.748;2023-12-20T11:00:40;4.68;;;1.63;;
72557;SDS011;60583;50.094;8.748;2023-12-20T11:03:08;4.72;;;1.33;;
72557;SDS011;60583;50.094;8.748;2023-12-20T11:05:51;4.80;;;1.60;;
72557;SDS011;60583;50.094;8.748;2023-12-20T11:08:27;4.95;;;1.23;;
72557;SDS011;60583;50.094;8.748;2023-12-20T11:10:59;5.28;;;1.67;;
72557;SDS011;60583;50.094;8.748;2023-12-20T11:16:19;6.95;;;1.50;;
72557;SDS011;60583;50.094;8.748;2023-12-20T11:18:45;5.78;;;1.55;;
72557;SDS011;60583;50.094;8.748;2023-12-20T11:21:10;4.50;;;1.48;;
72557;SDS011;60583;50.094;8.748;2023-12-20T11:23:36;5.93;;;1.58;;
72557;SDS011;60583;50.094;8.748;2023-12-20T11:26:02;7.18;;;1.70;;
72557;SDS011;60583;50.094;8.748;2023-12-20T11:28:27;5.45;;;1.63;;
72557;SDS011;60583;50.094;8.748;2023-12-20T11:30:56;7.50;;;1.45;;
72557;SDS011;60583;50.094;8.748;2023-12-20T11:33:45;5.45;;;1.80;;
72557;SDS011;60583;50.094;8.748;2023-12-20T11:36:14;6.25;;;1.60;;
72557;SDS011;60583;50.094;8.748;2023-12-20T11:39:01;7.35;;;2.53;;
72557;SDS011;60583;50.094;8.748;2023-12-20T11:41:28;6.50;;;2.08;;
72557;SDS011;60583;50.094;8.748;2023-12-20T11:43:54;5.75;;;1.50;;
72557;SDS011;60583;50.094;8.748;2023-12-20T11:46:21;6.55;;;1.80;;
72557;SDS011;60583;50.094;8.748;2023-12-20T11:48:47;5.18;;;1.30;;
72557;SDS011;60583;50.094;8.748;2023-12-20T11:51:13;4.30;;;1.70;;
72557;SDS011;60583;50.094;8.748;2023-12-20T11:53:39;6.72;;;1.52;;
72557;SDS011;60583;50.094;8.748;2023-12-20T11:56:06;3.97;;;1.33;;
72557;SDS011;60583;50.094;8.748;2023-12-20T11:58:32;7.13;;;1.45;;
72557;SDS011;60583;50.094;8.748;2023-12-20T12:00:58;5.50;;;1.45;;
72557;SDS011;60583;50.094;8.748;2023-12-20T12:03:24;7.65;;;1.88;;
72557;SDS011;60583;50.094;8.748;2023-12-20T12:05:49;8.75;;;3.00;;
72557;SDS011;60583;50.094;8.748;2023-12-20T12:08:15;6.75;;;2.78;;
72557;SDS011;60583;50.094;8.748;2023-12-20T12:10:42;5.43;;;1.83;;
72557;SDS011;60583;50.094;8.748;2023-12-20T12:13:08;5.93;;;1.55;;
72557;SDS011;60583;50.094;8.748;2023-12-20T12:15:35;9.10;;;2.00;;
72557;SDS011;60583;50.094;8.748;2023-12-20T12:18:01;7.47;;;1.85;;
72557;SDS011;60583;50.094;8.748;2023-12-20T12:20:26;4.45;;;1.35;;
72557;SDS011;60583;50.094;8.748;2023-12-20T12:23:02;5.80;;;1.48;;
72557;SDS011;60583;50.094;8.748;2023-12-20T12:25:29;5.15;;;1.65;;
72557;SDS011;60583;50.094;8.748;2023-12-20T12:27:56;6.72;;;1.75;;
72557;SDS011;60583;50.094;8.748;2023-12-20T12:30:22;6.93;;;2.05;;
72557;SDS011;60583;50.094;8.748;2023-12-20T12:32:48;6.50;;;1.80;;
72557;SDS011;60583;50.094;8.748;2023-12-20T12:35:13;7.00;;;2.00;;
72557;SDS011;60583;50.094;8.748;2023-12-20T12:37:39;5.05;;;1.52;;
72557;SDS011;60583;50.094;8.748;2023-12-20T12:40:16;4.25;;;1.40;;
72557;SDS011;60583;50.094;8.748;2023-12-20T12:42:43;4.65;;;1.33;;
72557;SDS011;60583;50.094;8.748;2023-12-20T12:45:09;5.03;;;1.50;;
72557;SDS011;60583;50.094;8.748;2023-12-20T12:47:36;7.25;;;1.90;;
72557;SDS011;60583;50.094;8.748;2023-12-20T12:50:03;5.20;;;1.58;;
72557;SDS011;60583;50.094;8.748;2023-12-20T12:52:29;6.05;;;1.90;;
72557;SDS011;60583;50.094;8.748;2023-12-20T12:54:55;5.45;;;1.80;;
72557;SDS011;60583;50.094;8.748;2023-12-20T12:57:21;5.35;;;1.73;;
72557;SDS011;60583;50.094;8.748;2023-12-20T12:59:46;5.85;;;1.83;;
72557;SDS011;60583;50.094;8.748;2023-12-20T13:02:12;6.82;;;1.90;;
72557;SDS011;60583;50.094;8.748;2023-12-20T13:04:41;7.60;;;1.98;;
72557;SDS011;60583;50.094;8.748;2023-12-20T13:07:07;6.18;;;2.08;;
72557;SDS011;60583;50.094;8.748;2023-12-20T13:09:35;7.32;;;2.05;;
72557;SDS011;60583;50.094;8.748;2023-12-20T13:12:01;6.18;;;2.53;;
72557;SDS011;60583;50.094;8.748;2023-12-20T13:14:29;5.22;;;1.90;;
72557;SDS011;60583;50.094;8.748;2023-12-20T13:16:54;5.97;;;2.05;;
72557;SDS011;60583;50.094;8.748;2023-12-20T13:19:21;5.93;;;1.63;;
72557;SDS011;60583;50.094;8.748;2023-12-20T13:21:46;6.10;;;1.92;;
72557;SDS011;60583;50.094;8.748;2023-12-20T13:24:11;5.70;;;2.13;;
72557;SDS011;60583;50.094;8.748;2023-12-20T13:26:37;5.38;;;1.75;;
72557;SDS011;60583;50.094;8.748;2023-12-20T13:29:02;5.10;;;1.77;;
72557;SDS011;60583;50.094;8.748;2023-12-20T13:31:28;4.70;;;1.70;;
72557;SDS011;60583;50.094;8.748;2023-12-20T13:33:53;5.60;;;1.50;;
72557;SDS011;60583;50.094;8.748;2023-12-20T13:36:18;7.65;;;1.95;;
72557;SDS011;60583;50.094;8.748;2023-12-20T13:38:44;6.20;;;1.50;;
72557;SDS011;60583;50.094;8.748;2023-12-20T13:41:09;5.85;;;1.55;;
72557;SDS011;60583;50.094;8.748;2023-12-20T13:43:35;4.00;;;1.48;;
72557;SDS011;60583;50.094;8.748;2023-12-20T13:46:00;6.40;;;1.77;;
72557;SDS011;60583;50.094;8.748;2023-12-20T13:48:26;9.35;;;2.08;;
72557;SDS011;60583;50.094;8.748;2023-12-20T13:50:51;5.03;;;1.95;;
72557;SDS011;60583;50.094;8.748;2023-12-20T13:53:17;7.07;;;2.42;;
72557;SDS011;60583;50.094;8.748;2023-12-20T13:55:42;5.30;;;1.70;;
72557;SDS011;60583;50.094;8.748;2023-12-20T13:58:07;5.80;;;1.70;;
72557;SDS011;60583;50.094;8.748;2023-12-20T14:00:35;7.65;;;1.70;;
72557;SDS011;60583;50.094;8.748;2023-12-20T14:03:01;7.13;;;1.70;;
72557;SDS011;60583;50.094;8.748;2023-12-20T14:05:28;6.07;;;1.80;;
72557;SDS011;60583;50.094;8.748;2023-12-20T14:07:53;4.20;;;1.40;;
72557;SDS011;60583;50.094;8.748;2023-12-20T14:10:19;5.20;;;1.70;;
72557;SDS011;60583;50.094;8.748;2023-12-20T14:12:44;4.65;;;1.60;;
72557;SDS011;60583;50.094;8.748;2023-12-20T14:15:11;4.68;;;1.33;;
72557;SDS011;60583;50.094;8.748;2023-12-20T14:17:38;4.10;;;1.67;;
72557;SDS011;60583;50.094;8.748;2023-12-20T14:20:07;5.43;;;1.52;;
72557;SDS011;60583;50.094;8.748;2023-12-20T14:22:34;6.57;;;1.70;;
72557;SDS011;60583;50.094;8.748;2023-12-20T14:25:00;4.35;;;1.60;;
72557;SDS011;60583;50.094;8.748;2023-12-20T14:27:26;6.35;;;2.00;;
72557;SDS011;60583;50.094;8.748;2023-12-20T14:29:56;3.08;;;1.27;;
72557;SDS011;60583;50.094;8.748;2023-12-20T14:32:21;4.30;;;1.70;;
72557;SDS011;60583;50.094;8.748;2023-12-20T14:34:47;3.42;;;1.30;;
72557;SDS011;60583;50.094;8.748;2023-12-20T14:37:12;6.10;;;1.67;;
72557;SDS011;60583;50.094;8.748;2023-12-20T14:39:38;5.80;;;1.67;;
72557;SDS011;60583;50.094;8.748;2023-12-20T14:42:09;4.85;;;1.40;;
72557;SDS011;60583;50.094;8.748;2023-12-20T14:44:39;6.90;;;2.55;;